createdAt,value
2019-02-08T00:01:39.346Z,100644.16
2019-02-08T00:04:08.185Z,100639.30
2019-02-08T00:06:37.080Z,100638.72
2019-02-08T00:09:09.190Z,100643.09
2019-02-08T00:11:38.059Z,100643.43
2019-02-08T00:14:07.236Z,100645.23
2019-02-08T00:16:36.085Z,100640.45
2019-02-08T00:19:44.489Z,100639.99
2019-02-08T00:22:13.397Z,100633.53
2019-02-08T00:24:42.037Z,100642.58
2019-02-08T00:27:10.760Z,100646.60
2019-02-08T00:29:39.471Z,100652.61
2019-02-08T00:32:08.098Z,100650.97
2019-02-08T00:34:36.802Z,100651.92
2019-02-08T00:37:05.434Z,100651.39
2019-02-08T00:39:34.303Z,100649.49
2019-02-08T00:42:02.933Z,100658.74
2019-02-08T00:44:31.653Z,100650.72
2019-02-08T00:47:00.357Z,100661.89
2019-02-08T00:49:29.043Z,100662.30
2019-02-08T00:51:57.679Z,100658.34
2019-02-08T00:54:26.368Z,100663.00
2019-02-08T00:56:54.954Z,100660.41
2019-02-08T00:59:23.593Z,100649.55
2019-02-08T01:01:52.328Z,100649.88
2019-02-08T01:04:20.991Z,100646.38
2019-02-08T01:06:49.621Z,100657.61
2019-02-08T01:09:18.321Z,100650.95
2019-02-08T01:11:47.233Z,100659.29
2019-02-08T01:14:15.941Z,100665.79
2019-02-08T01:16:44.681Z,100664.85
2019-02-08T01:19:13.313Z,100666.22
2019-02-08T01:21:42.056Z,100672.27
2019-02-08T01:24:10.784Z,100672.31
2019-02-08T01:26:39.397Z,100668.55
2019-02-08T01:29:08.106Z,100663.52
2019-02-08T01:31:36.797Z,100674.10
2019-02-08T01:34:05.705Z,100664.64
2019-02-08T01:36:34.341Z,100674.36
2019-02-08T01:39:03.056Z,100672.41
2019-02-08T01:41:31.670Z,100677.05
2019-02-08T01:44:00.303Z,100670.59
2019-02-08T01:46:28.938Z,100667.36
2019-02-08T01:48:57.647Z,100666.37
2019-02-08T01:51:26.332Z,100661.19
2019-02-08T01:53:55.041Z,100663.45
2019-02-08T01:56:23.657Z,100658.96
2019-02-08T01:58:52.305Z,100664.77
2019-02-08T02:01:20.947Z,100660.58
2019-02-08T02:03:49.594Z,100655.09
2019-02-08T02:06:18.202Z,100657.19
2019-02-08T02:08:46.849Z,100661.03
2019-02-08T02:11:15.481Z,100671.62
2019-02-08T02:13:44.197Z,100662.36
2019-02-08T02:16:12.882Z,100669.02
2019-02-08T02:18:41.519Z,100666.73
2019-02-08T02:21:10.129Z,100667.78
2019-02-08T02:23:38.756Z,100662.86
2019-02-08T02:26:07.449Z,100665.42
2019-02-08T02:28:36.154Z,100665.27
2019-02-08T02:34:18.871Z,100675.57
2019-02-08T02:36:47.483Z,100678.02
2019-02-08T02:39:16.182Z,100675.05
2019-02-08T02:41:44.799Z,100671.88
2019-02-08T02:44:13.511Z,100664.73
2019-02-08T02:46:42.189Z,100668.20
2019-02-08T02:49:10.883Z,100673.20
2019-02-08T02:51:39.583Z,100669.23
2019-02-08T02:54:08.295Z,100664.98
2019-02-08T02:56:37.016Z,100658.28
2019-02-08T03:02:20.138Z,100662.97
2019-02-08T03:04:48.755Z,100662.66
2019-02-08T03:07:17.543Z,100665.86
2019-02-08T03:09:46.285Z,100666.14
2019-02-08T03:12:14.922Z,100665.91
2019-02-08T03:14:43.562Z,100663.09
2019-02-08T03:17:12.265Z,100663.91
2019-02-08T03:19:40.986Z,100664.86
2019-02-08T03:22:09.671Z,100675.30
2019-02-08T03:24:38.285Z,100671.72
2019-02-08T03:27:06.913Z,100666.63
2019-02-08T03:29:35.525Z,100670.31
2019-02-08T03:32:04.305Z,100669.67
2019-02-08T03:34:32.998Z,100668.98
2019-02-08T03:37:01.718Z,100665.17
2019-02-08T03:39:30.356Z,100657.11
2019-02-08T03:41:58.979Z,100659.86
2019-02-08T03:44:27.585Z,100663.55
2019-02-08T03:46:56.218Z,100655.02
2019-02-08T03:49:24.909Z,100662.69
2019-02-08T03:51:53.541Z,100660.88
2019-02-08T03:54:22.178Z,100664.62
2019-02-08T03:56:50.813Z,100666.34
2019-02-08T03:59:19.524Z,100661.05
2019-02-08T04:01:48.233Z,100653.45
2019-02-08T04:04:17.542Z,100660.65
2019-02-08T04:06:46.250Z,100658.36
2019-02-08T04:09:14.947Z,100655.27
2019-02-08T04:11:43.652Z,100656.84
2019-02-08T04:14:12.361Z,100656.64
2019-02-08T04:16:41.053Z,100662.17
2019-02-08T04:19:09.760Z,100660.49
2019-02-08T04:21:38.386Z,100652.27
2019-02-08T04:24:07.164Z,100654.55
2019-02-08T04:26:35.773Z,100666.10
2019-02-08T04:29:04.493Z,100657.16
2019-02-08T04:31:33.110Z,100655.35
2019-02-08T04:34:01.724Z,100656.11
2019-02-08T04:36:30.332Z,100659.59
2019-02-08T04:38:59.032Z,100650.61
2019-02-08T04:41:27.718Z,100654.67
2019-02-08T04:43:56.422Z,100646.67
2019-02-08T04:46:25.037Z,100651.64
2019-02-08T04:48:53.690Z,100651.13
2019-02-08T04:51:22.386Z,100652.72
2019-02-08T04:53:51.196Z,100642.34
2019-02-08T04:56:19.822Z,100649.13
2019-02-08T04:58:48.467Z,100644.50
2019-02-08T05:01:17.085Z,100646.28
2019-02-08T05:03:45.711Z,100649.12
2019-02-08T05:06:14.406Z,100650.70
2019-02-08T05:08:43.109Z,100648.80
2019-02-08T05:11:11.805Z,100647.70
2019-02-08T05:13:40.441Z,100652.64
2019-02-08T05:16:09.057Z,100653.34
2019-02-08T05:18:37.754Z,100649.19
2019-02-08T05:21:06.374Z,100650.10
2019-02-08T05:23:35.047Z,100650.59
2019-02-08T05:26:03.842Z,100652.84
2019-02-08T05:28:32.459Z,100646.91
2019-02-08T05:31:01.102Z,100657.42
2019-02-08T05:33:29.955Z,100658.23
2019-02-08T05:35:58.529Z,100660.50
2019-02-08T05:38:27.152Z,100651.46
2019-02-08T05:40:55.791Z,100652.84
2019-02-08T05:43:24.466Z,100651.01
2019-02-08T05:45:53.099Z,100642.83
2019-02-08T05:48:21.749Z,100646.80
2019-02-08T05:50:50.454Z,100655.08
2019-02-08T05:53:19.123Z,100655.14
2019-02-08T05:55:47.843Z,100662.35
2019-02-08T05:58:16.463Z,100659.99
2019-02-08T06:00:52.088Z,100654.72
2019-02-08T06:03:20.779Z,100649.45
2019-02-08T06:05:49.493Z,100655.23
2019-02-08T06:08:18.248Z,100648.26
2019-02-08T06:10:46.978Z,100655.38
2019-02-08T06:13:15.665Z,100649.84
2019-02-08T06:15:44.314Z,100647.61
2019-02-08T06:18:13.164Z,100641.85
2019-02-08T06:20:42.426Z,100648.64
2019-02-08T06:23:11.182Z,100640.02
2019-02-08T06:25:39.981Z,100649.94
2019-02-08T06:28:08.832Z,100652.20
2019-02-08T06:30:37.785Z,100650.27
2019-02-08T06:33:07.127Z,100657.66
2019-02-08T06:35:35.995Z,100665.20
2019-02-08T06:38:05.229Z,100668.46
2019-02-08T06:43:28.664Z,100672.92
2019-02-08T06:45:57.287Z,100672.37
2019-02-08T06:48:25.889Z,100676.24
2019-02-08T06:50:54.597Z,100672.79
2019-02-08T06:53:23.283Z,100671.27
2019-02-08T06:55:53.883Z,100677.58
2019-02-08T06:58:41.410Z,100681.03
2019-02-08T07:01:29.105Z,100676.86
2019-02-08T07:04:16.745Z,100678.35
2019-02-08T07:07:04.346Z,100677.92
2019-02-08T07:09:52.073Z,100683.71
2019-02-08T07:12:39.760Z,100677.11
2019-02-08T07:15:27.993Z,100682.12
2019-02-08T07:18:03.034Z,100681.52
2019-02-08T07:20:50.710Z,100677.20
2019-02-08T07:23:28.056Z,100678.72
2019-02-08T07:26:15.706Z,100685.13
2019-02-08T07:29:03.312Z,100685.50
2019-02-08T07:31:50.939Z,100689.27
2019-02-08T07:34:38.621Z,100689.40
2019-02-08T07:37:26.251Z,100685.88
2019-02-08T07:43:16.063Z,100666.78
2019-02-08T07:49:05.451Z,100672.00
2019-02-08T07:51:42.875Z,100672.78
2019-02-08T07:54:30.566Z,100676.38
2019-02-08T07:57:09.543Z,100675.25
2019-02-08T07:59:49.375Z,100685.04
2019-02-08T08:02:37.095Z,100686.36
2019-02-08T08:05:45.663Z,100679.21
2019-02-08T08:08:33.367Z,100682.28
2019-02-08T08:11:21.150Z,100678.34
2019-02-08T08:14:00.291Z,100676.56
2019-02-08T08:16:47.969Z,100680.86
2019-02-08T08:19:56.766Z,100676.88
2019-02-08T08:22:32.784Z,100672.41
2019-02-08T08:25:41.231Z,100673.10
2019-02-08T08:28:29.066Z,100666.14
2019-02-08T08:41:08.873Z,100656.55
2019-02-08T08:44:15.990Z,100650.94
2019-02-08T08:47:23.108Z,100658.42
2019-02-08T08:50:17.134Z,100653.11
2019-02-08T08:53:24.239Z,100658.23
2019-02-08T08:56:31.517Z,100649.28
2019-02-08T08:59:38.657Z,100647.84
2019-02-08T09:05:54.335Z,100645.48
2019-02-08T09:09:01.477Z,100643.00
2019-02-08T09:12:08.583Z,100647.83
2019-02-08T09:15:03.021Z,100646.97
2019-02-08T09:18:10.184Z,100644.18
2019-02-08T09:21:17.319Z,100647.01
2019-02-08T09:24:24.444Z,100643.69
2019-02-08T09:27:16.232Z,100635.53
2019-02-08T09:30:23.349Z,100646.64
2019-02-08T09:33:30.480Z,100657.11
2019-02-08T09:36:37.610Z,100643.67
2019-02-08T09:39:44.718Z,100640.35
2019-02-08T09:42:51.831Z,100643.51
2019-02-08T09:45:58.937Z,100648.64
2019-02-08T09:49:06.055Z,100645.19
2019-02-08T09:52:13.220Z,100645.36
2019-02-08T09:55:20.302Z,100640.16
2019-02-08T09:58:27.451Z,100642.17
2019-02-08T10:01:34.562Z,100633.91
2019-02-08T10:04:41.806Z,100635.74
2019-02-08T10:07:48.926Z,100633.42
2019-02-08T10:10:56.028Z,100626.94
2019-02-08T10:14:03.127Z,100624.13
2019-02-08T10:16:58.079Z,100617.66
2019-02-08T10:19:57.906Z,100623.29
2019-02-08T10:23:05.038Z,100613.14
2019-02-08T10:26:05.477Z,100609.84
2019-02-08T10:29:17.207Z,100608.64
2019-02-08T10:32:24.730Z,100602.66
2019-02-08T10:35:31.843Z,100604.33
2019-02-08T10:38:38.948Z,100600.33
2019-02-08T10:41:46.142Z,100605.14
2019-02-08T10:44:53.448Z,100605.80
2019-02-08T10:48:00.688Z,100603.64
2019-02-08T10:51:07.907Z,100596.77
2019-02-08T10:54:15.014Z,100596.61
2019-02-08T10:57:22.172Z,100592.73
2019-02-08T11:00:39.426Z,100596.03
2019-02-08T11:03:46.548Z,100595.97
2019-02-08T11:07:28.031Z,100585.58
2019-02-08T11:10:32.283Z,100581.92
2019-02-08T11:13:39.397Z,100571.14
2019-02-08T11:16:34.742Z,100573.89
2019-02-08T11:19:40.978Z,100579.37
2019-02-08T11:22:09.698Z,100572.91
2019-02-08T11:24:38.441Z,100563.17
2019-02-08T11:27:07.163Z,100554.21
2019-02-08T11:29:35.792Z,100550.70
2019-02-08T11:32:44.199Z,100546.52
2019-02-08T11:35:52.616Z,100537.22
2019-02-08T11:38:21.213Z,100536.69
2019-02-08T11:41:29.677Z,100523.70
2019-02-08T11:43:58.323Z,100521.87
2019-02-08T11:46:27.019Z,100517.35
2019-02-08T11:48:55.635Z,100510.19
2019-02-08T11:51:24.291Z,100506.56
2019-02-08T11:53:52.984Z,100501.27
2019-02-08T11:56:21.701Z,100508.83
2019-02-08T11:58:50.327Z,100492.16
2019-02-08T12:01:19.028Z,100486.89
2019-02-08T12:03:47.644Z,100492.85
2019-02-08T12:06:16.360Z,100487.52
2019-02-08T12:08:44.995Z,100484.14
2019-02-08T12:11:13.653Z,100474.56
2019-02-08T12:13:42.348Z,100469.90
2019-02-08T12:16:11.054Z,100470.38
2019-02-08T12:18:39.740Z,100469.70
2019-02-08T12:21:08.440Z,100470.16
2019-02-08T12:23:37.052Z,100462.69
2019-02-08T12:26:05.701Z,100451.83
2019-02-08T12:28:34.324Z,100451.29
2019-02-08T12:31:02.957Z,100449.59
2019-02-08T12:33:31.559Z,100442.97
2019-02-08T12:36:00.246Z,100447.19
2019-02-08T12:38:28.889Z,100446.24
2019-02-08T12:40:57.508Z,100437.59
2019-02-08T12:43:26.291Z,100428.68
2019-02-08T12:45:55.002Z,100432.88
2019-02-08T12:48:23.624Z,100426.44
2019-02-08T12:50:52.273Z,100417.52
2019-02-08T12:53:20.892Z,100418.06
2019-02-08T12:55:49.509Z,100410.14
2019-02-08T12:58:18.161Z,100412.31
2019-02-08T13:00:46.872Z,100408.88
2019-02-08T13:03:15.514Z,100412.59
2019-02-08T13:05:44.292Z,100401.77
2019-02-08T13:08:12.935Z,100401.36
2019-02-08T13:10:41.552Z,100395.14
2019-02-08T13:13:10.214Z,100388.69
2019-02-08T13:15:38.849Z,100387.14
2019-02-08T13:18:07.497Z,100386.31
2019-02-08T13:20:36.182Z,100373.60
2019-02-08T13:23:04.981Z,100373.83
2019-02-08T13:25:33.626Z,100361.98
2019-02-08T13:28:02.313Z,100364.16
2019-02-08T13:33:44.836Z,100361.62
2019-02-08T13:36:15.095Z,100359.79
2019-02-08T13:38:43.837Z,100348.97
2019-02-08T13:41:12.534Z,100358.72
2019-02-08T13:43:41.218Z,100354.19
2019-02-08T13:46:09.912Z,100338.28
2019-02-08T13:48:38.551Z,100346.77
2019-02-08T13:51:07.178Z,100348.97
2019-02-08T13:53:35.875Z,100340.83
2019-02-08T13:56:04.602Z,100340.56
2019-02-08T13:58:33.422Z,100332.75
2019-02-08T14:01:02.087Z,100339.55
2019-02-08T14:03:30.800Z,100332.73
2019-02-08T14:05:59.493Z,100333.95
2019-02-08T14:08:28.244Z,100331.60
2019-02-08T14:10:56.959Z,100332.16
2019-02-08T14:13:25.579Z,100329.06
2019-02-08T14:15:54.407Z,100328.23
2019-02-08T14:18:23.050Z,100323.53
2019-02-08T14:20:51.777Z,100325.83
2019-02-08T14:23:20.476Z,100331.41
2019-02-08T14:25:49.196Z,100331.29
2019-02-08T14:28:17.796Z,100322.70
2019-02-08T14:30:46.503Z,100321.85
2019-02-08T14:33:15.132Z,100328.27
2019-02-08T14:35:43.950Z,100321.02
2019-02-08T14:41:28.325Z,100319.00
2019-02-08T14:43:57.012Z,100325.59
2019-02-08T14:46:25.635Z,100317.15
2019-02-08T14:48:56.293Z,100317.21
2019-02-08T14:51:24.868Z,100310.67
2019-02-08T14:53:53.484Z,100295.81
2019-02-08T14:56:22.180Z,100304.63
2019-02-08T14:58:50.921Z,100306.02
2019-02-08T15:01:19.548Z,100298.65
2019-02-08T15:03:48.158Z,100296.50
2019-02-08T15:06:16.812Z,100294.27
2019-02-08T15:08:45.496Z,100301.00
2019-02-08T15:11:14.277Z,100300.14
2019-02-08T15:13:42.954Z,100297.27
2019-02-08T15:16:11.651Z,100296.20
2019-02-08T15:18:40.258Z,100293.98
2019-02-08T15:21:08.895Z,100300.38
2019-02-08T15:23:37.517Z,100290.66
2019-02-08T15:26:06.165Z,100294.53
2019-02-08T15:28:34.836Z,100290.04
2019-02-08T15:31:03.594Z,100282.34
2019-02-08T15:33:32.206Z,100279.61
2019-02-08T15:36:01.164Z,100277.06
2019-02-08T15:38:29.880Z,100273.31
2019-02-08T15:40:58.659Z,100273.52
2019-02-08T15:43:28.039Z,100269.31
2019-02-08T15:45:59.349Z,100265.06
2019-02-08T15:48:28.088Z,100266.14
2019-02-08T15:50:56.783Z,100262.97
2019-02-08T15:53:25.420Z,100263.13
2019-02-08T15:56:15.233Z,100248.16
2019-02-08T15:58:44.024Z,100247.30
2019-02-08T16:01:13.148Z,100240.20
2019-02-08T16:03:42.025Z,100244.64
2019-02-08T16:06:10.743Z,100241.03
2019-02-08T16:08:39.477Z,100243.17
2019-02-08T16:11:08.280Z,100238.17
2019-02-08T16:13:37.013Z,100245.77
2019-02-08T16:19:20.292Z,100240.62
2019-02-08T16:21:48.990Z,100229.25
2019-02-08T16:24:17.741Z,100228.33
2019-02-08T16:26:46.350Z,100220.05
2019-02-08T16:29:15.024Z,100221.39
2019-02-08T16:31:43.782Z,100207.73
2019-02-08T16:34:12.484Z,100211.73
2019-02-08T16:36:41.140Z,100209.39
2019-02-08T16:39:29.723Z,100208.56
2019-02-08T16:41:58.341Z,100209.63
2019-02-08T16:44:27.049Z,100201.57
2019-02-08T16:46:55.734Z,100196.49
2019-02-08T16:49:43.673Z,100194.83
2019-02-08T16:52:12.741Z,100189.25
2019-02-08T16:55:00.576Z,100184.86
2019-02-08T16:57:29.391Z,100175.59
2019-02-08T16:59:58.274Z,100172.34
2019-02-08T17:02:27.090Z,100177.23
2019-02-08T17:04:55.833Z,100171.70
2019-02-08T17:07:24.575Z,100157.31
2019-02-08T17:09:53.449Z,100162.59
2019-02-08T17:12:22.312Z,100163.22
2019-02-08T17:14:51.136Z,100151.98
2019-02-08T17:17:20.119Z,100153.60
2019-02-08T17:19:48.937Z,100142.42
2019-02-08T17:22:17.739Z,100141.94
2019-02-08T17:24:46.743Z,100140.72
2019-02-08T17:27:15.628Z,100134.63
2019-02-08T17:29:44.405Z,100119.19
2019-02-08T17:32:15.926Z,100121.16
2019-02-08T17:37:19.429Z,100114.08
2019-02-08T17:39:48.251Z,100111.53
2019-02-08T17:42:17.272Z,100109.04
2019-02-08T17:44:45.966Z,100104.15
2019-02-08T17:47:14.931Z,100099.19
2019-02-08T17:49:44.117Z,100100.33
2019-02-08T17:52:13.158Z,100102.73
2019-02-08T17:54:42.111Z,100102.95
2019-02-08T17:57:10.815Z,100109.90
2019-02-08T17:59:39.617Z,100105.77
2019-02-08T18:02:08.289Z,100106.09
2019-02-08T18:04:37.003Z,100102.23
2019-02-08T18:07:05.694Z,100095.97
2019-02-08T18:09:34.437Z,100092.75
2019-02-08T18:12:03.177Z,100099.05
2019-02-08T18:14:31.789Z,100101.27
2019-02-08T18:17:00.476Z,100102.58
2019-02-08T18:19:29.123Z,100095.78
2019-02-08T18:21:58.524Z,100099.02
2019-02-08T18:24:27.163Z,100100.16
2019-02-08T18:26:55.786Z,100104.84
2019-02-08T18:29:24.619Z,100095.33
2019-02-08T18:31:53.423Z,100087.81
2019-02-08T18:34:22.244Z,100086.68
2019-02-08T18:36:51.112Z,100082.35
2019-02-08T18:39:20.289Z,100086.59
2019-02-08T18:41:49.015Z,100079.30
2019-02-08T18:44:17.781Z,100080.16
2019-02-08T18:46:46.564Z,100074.55
2019-02-08T18:49:15.340Z,100074.16
2019-02-08T18:51:44.178Z,100066.53
2019-02-08T18:54:13.057Z,100061.10
2019-02-08T18:56:41.779Z,100055.77
2019-02-08T18:59:10.604Z,100056.72
2019-02-08T19:01:39.458Z,100048.00
2019-02-08T19:04:08.412Z,100050.95
2019-02-08T19:06:37.150Z,100045.56
2019-02-08T19:09:08.479Z,100039.73
2019-02-08T19:11:37.255Z,100037.02
2019-02-08T19:14:06.386Z,100038.27
2019-02-08T19:16:35.139Z,100032.09
2019-02-08T19:19:03.959Z,100022.60
2019-02-08T19:21:32.667Z,100020.08
2019-02-08T19:24:01.368Z,100016.66
2019-02-08T19:26:30.209Z,100005.11
2019-02-08T19:29:01.166Z,100006.17
2019-02-08T19:31:30.061Z,100000.98
2019-02-08T19:33:58.931Z,100000.13
2019-02-08T19:36:27.707Z,100012.66
2019-02-08T19:38:56.657Z,99993.61
2019-02-08T19:41:25.341Z,99985.40
2019-02-08T19:43:54.177Z,99985.34
2019-02-08T19:46:22.999Z,99978.75
2019-02-08T19:48:51.712Z,99978.42
2019-02-08T19:51:20.399Z,99972.39
2019-02-08T19:53:49.198Z,99973.02
2019-02-08T19:56:18.044Z,99965.66
2019-02-08T19:58:47.347Z,99968.66
2019-02-08T20:01:16.415Z,99963.13
2019-02-08T20:03:45.310Z,99963.33
2019-02-08T20:06:14.204Z,99963.52
2019-02-08T20:11:31.315Z,99958.39
2019-02-08T20:14:00.110Z,99941.72
2019-02-08T20:16:29.017Z,99943.66
2019-02-08T20:18:57.817Z,99935.17
2019-02-08T20:21:27.454Z,99935.50
2019-02-08T20:23:56.336Z,99930.11
2019-02-08T20:26:25.276Z,99925.58
2019-02-08T20:28:54.807Z,99920.09
2019-02-08T20:31:23.643Z,99918.48
2019-02-08T20:33:52.378Z,99915.39
2019-02-08T20:36:21.903Z,99906.27
2019-02-08T20:38:50.632Z,99908.63
2019-02-08T20:41:19.546Z,99911.23
2019-02-08T20:43:48.878Z,99900.95
2019-02-08T20:46:17.736Z,99899.55
2019-02-08T20:48:46.435Z,99886.53
2019-02-08T20:51:15.096Z,99887.16
2019-02-08T20:53:43.777Z,99885.20
2019-02-08T20:56:12.593Z,99888.59
2019-02-08T20:58:41.671Z,99887.80
2019-02-08T21:03:59.937Z,99874.16
2019-02-08T21:06:28.736Z,99879.67
2019-02-08T21:08:57.620Z,99880.08
2019-02-08T21:11:26.381Z,99883.10
2019-02-08T21:13:55.089Z,99883.73
2019-02-08T21:16:24.067Z,99874.95
2019-02-08T21:18:52.820Z,99874.98
2019-02-08T21:21:21.691Z,99867.59
2019-02-08T21:23:50.312Z,99864.79
2019-02-08T21:26:19.140Z,99860.17
2019-02-08T21:28:47.820Z,99862.26
2019-02-08T21:31:35.719Z,99862.47
2019-02-08T21:34:04.490Z,99851.98
2019-02-08T21:36:38.780Z,99837.88
2019-02-08T21:47:34.407Z,99828.13
2019-02-08T21:50:24.682Z,99824.27
2019-02-08T21:55:45.754Z,99820.78
2019-02-08T21:58:14.593Z,99805.70
2019-02-08T22:00:43.742Z,99801.85
2019-02-08T22:03:12.915Z,99802.92
2019-02-08T22:05:44.583Z,99794.23
2019-02-08T22:08:13.747Z,99799.27
2019-02-08T22:10:42.605Z,99793.38
2019-02-08T22:13:11.308Z,99789.48
2019-02-08T22:15:40.300Z,99797.36
2019-02-08T22:18:48.787Z,99790.78
2019-02-08T22:21:17.528Z,99800.88
2019-02-08T22:23:46.310Z,99790.80
2019-02-08T22:26:15.135Z,99794.38
2019-02-08T22:28:43.825Z,99792.53
2019-02-08T22:31:12.839Z,99784.75
2019-02-08T22:33:41.550Z,99780.50
2019-02-08T22:36:10.253Z,99781.05
2019-02-08T22:38:39.020Z,99779.73
2019-02-08T22:41:07.730Z,99785.88
2019-02-08T22:43:36.554Z,99782.39
2019-02-08T22:46:05.373Z,99796.47
2019-02-08T22:48:34.234Z,99783.78
2019-02-08T22:51:02.961Z,99775.87
2019-02-08T22:53:31.696Z,99772.70
2019-02-08T22:56:00.375Z,99766.61
2019-02-08T22:58:29.108Z,99765.48
2019-02-08T23:01:36.281Z,99758.92
2019-02-08T23:04:06.641Z,99753.98
2019-02-08T23:06:35.447Z,99740.22
2019-02-08T23:09:43.903Z,99736.05
2019-02-08T23:12:31.756Z,99721.78
2019-02-08T23:15:00.503Z,99720.33
2019-02-08T23:17:29.284Z,99716.26
2019-02-08T23:20:17.271Z,99711.47
2019-02-08T23:22:45.946Z,99709.30
2019-02-08T23:25:14.713Z,99714.62
2019-02-08T23:27:43.375Z,99709.86
2019-02-08T23:30:12.233Z,99714.00
2019-02-08T23:32:41.000Z,99711.27
2019-02-08T23:35:11.086Z,99717.02
2019-02-08T23:37:40.431Z,99708.80
2019-02-08T23:40:09.256Z,99708.18
2019-02-08T23:42:37.977Z,99696.22
2019-02-08T23:45:46.938Z,99684.80
2019-02-08T23:48:15.605Z,99679.90
2019-02-08T23:50:44.287Z,99672.32
2019-02-08T23:53:13.194Z,99686.25
2019-02-08T23:55:41.878Z,99687.44
2019-02-08T23:58:10.641Z,99695.59
